Keauhou, HI (96739)

2:27 PM HST on February 19, 2017 (GMT -1000)
Keauhou Bay, Kailua Kona | | Change Station
Active Advisory: Small Craft Advisory

Elev 52 ft 19.56 °N, 155.96 °W | Updated 8 seconds ago

Mostly Cloudy
Mostly Cloudy
82.1 °F
Feels Like 86 °F
N
0.0
Wind Variable Wind from NNW
Gusts 5.0 mph

Today
High -- | Low -- °F
--% Chance of Precip.
Yesterday
High -- | Low -- °F
Precip. -- in
Pressure 30.06 in
Visibility 10.0 miles
Clouds Mostly Cloudy 4500 ft
Heat Index 86 °F
Dew Point 69 °F
Humidity 66%
Rainfall 0.00 in
Snow Depth Not available.
6:49 AM 6:25 PM
Last Quarter, 39% visible
METAR PHKO 192353Z 35019G28KT 10SM BKN045 27/17 A3006 RMK AO2 PK WND 35028/2346 SLP178 T02670172 10272 20239 56020
Pressure 30.06 in
Visibility 10.0 miles
Clouds Mostly Cloudy 4500 ft
Heat Index 86 °F
Dew Point 69 °F
Humidity 66%
Rainfall 0.00 in
Snow Depth Not available.
6:49 AM 6:25 PM
Last Quarter, 39% visible
METAR PHKO 192353Z 35019G28KT 10SM BKN045 27/17 A3006 RMK AO2 PK WND 35028/2346 SLP178 T02670172 10272 20239 56020

Get Your Daily Forecast Email!

Thanks for signing up!

Be on the lookout for a verification email in your inbox.

You'll start receiving the daily forecast at 8 AM.

×

10-Day Weather Forecast

Almanac

Astronomy

Feb. 19, 2017 Rise Set
Actual Time
Civil Twilight
Nautical Twilight
Astronomical Twilight
Moon
Length of Visible Light
Length of Day
Tomorrow will be .
, % of the Moon is Illuminated

Today's Extremes

State Highs State Lows

Community

WunderPhotos

Upload Photos

1,962,540 photos uploaded!

WunderBlog® & News

Nearby

Air Quality

  Air Quality AQ Index Pollutant
Not available.

Snow Depth

Station Depth Elevation

Earthquake Activity

City Distance Mag. Time & Date
Minimum magnitude displayed is 2.5.

Coastal Water Temperatures

Place Temperature

Stations

Nearby Weather Stations

Station Location Temp. Windchill Dew Point Humidity Wind Precip. Elev Updated Type
                   

Watches & Warnings

Small Craft Advisory
Issued: 9:34 AM HST Feb. 19, 2017 – National Weather Service

... Small Craft Advisory remains in effect until 6 PM HST Monday...

* winds and seas... north to northeast winds 10 to 20 kt increasing
to 20 to 30 kt this afternoon... then becoming east Monday. Seas
4 to 7 ft... building to 8 to 12 ft this afternoon.

Precautionary/preparedness actions...

A Small Craft Advisory means that winds speeds of 25 to 33 knots
and/or seas 10 feet or greater are expected to produce conditions
hazardous to small craft. Inexperienced mariners... especially
those operating smaller vessels... should avoid navigating in
these conditions.